Time;durP1;ratioP1;P1;durP2;ratioP2;P2;SDS_P1;SDS_P2;PMS_P1;PMS_P2;Temp;Humidity;BMP_temperature;BMP_pressure;BME280_temperature;BME280_humidity;BME280_pressure;Samples;Min_cycle;Max_cycle;Signal;HPM_P1;HPM_P2
2022/10/06 00:01:05;;;;;;;2.40;0.60;;;17.90;99.90;;;;;;5060224;28;20227;-72
2022/10/06 00:03:36;;;;;;;0.70;0.50;;;17.90;99.90;;;;;;5044363;28;20197;-74
2022/10/06 00:06:06;;;;;;;2.08;0.73;;;17.90;99.90;;;;;;5057095;28;20173;-74
2022/10/06 00:08:34;;;;;;;5.45;0.75;;;17.90;99.90;;;;;;5057979;28;20219;-73
2022/10/06 00:11:00;;;;;;;2.88;0.68;;;17.90;99.90;;;;;;5056131;28;20177;-73
2022/10/06 00:13:32;;;;;;;2.53;0.80;;;17.90;99.90;;;;;;5054210;28;20189;-73
2022/10/06 00:15:58;;;;;;;1.52;0.57;;;17.90;99.90;;;;;;5038499;28;20205;-72
2022/10/06 00:18:25;;;;;;;1.77;0.82;;;17.90;99.90;;;;;;5056433;28;20181;-72
2022/10/06 00:20:59;;;;;;;5.72;0.90;;;17.90;99.90;;;;;;5051142;28;20198;-73
2022/10/06 00:23:30;;;;;;;2.75;0.90;;;17.80;99.90;;;;;;5037631;28;20277;-72
2022/10/06 00:25:57;;;;;;;1.17;0.70;;;17.70;99.90;;;;;;5038088;28;20462;-70
2022/10/06 00:28:22;;;;;;;2.25;0.90;;;17.60;99.90;;;;;;5037698;28;20232;-72
2022/10/06 00:30:49;;;;;;;1.45;0.77;;;17.40;99.90;;;;;;5037194;28;20206;-71
2022/10/06 00:33:16;;;;;;;1.42;0.73;;;17.20;99.90;;;;;;5037155;28;20193;-72
2022/10/06 00:35:44;;;;;;;1.08;0.60;;;17.10;99.90;;;;;;5037101;28;20170;-72
2022/10/06 00:38:15;;;;;;;2.78;0.77;;;17.00;99.90;;;;;;5037983;28;20224;-70
2022/10/06 00:40:48;;;;;;;2.03;0.77;;;16.90;99.90;;;;;;5037916;28;20182;-71
2022/10/06 00:43:39;;;;;;;1.75;0.65;;;16.70;99.90;;;;;;5023221;28;20280;-71
2022/10/06 00:46:10;;;;;;;1.42;0.70;;;16.70;99.90;;;;;;5054201;28;20259;-70
2022/10/06 00:48:36;;;;;;;1.63;0.60;;;16.60;99.90;;;;;;5053731;28;20261;-70
2022/10/06 00:51:02;;;;;;;0.90;0.55;;;16.50;99.90;;;;;;5054017;28;20204;-72
2022/10/06 00:53:29;;;;;;;2.75;0.70;;;16.50;99.90;;;;;;5044902;28;20191;-71
2022/10/06 00:55:58;;;;;;;1.17;0.57;;;16.50;99.90;;;;;;5053083;28;20200;-71
2022/10/06 00:58:24;;;;;;;1.45;0.60;;;16.40;99.90;;;;;;5076042;28;20244;-71
2022/10/06 01:00:54;;;;;;;2.75;0.90;;;16.50;99.90;;;;;;5064397;28;20523;-71
2022/10/06 01:03:36;;;;;;;1.50;0.70;;;16.50;99.90;;;;;;5053398;28;20178;-71
2022/10/06 01:06:02;;;;;;;1.55;0.68;;;16.50;99.90;;;;;;5037839;28;20206;-70
2022/10/06 01:08:29;;;;;;;3.00;0.90;;;16.50;99.90;;;;;;5038571;28;20229;-72
2022/10/06 01:10:55;;;;;;;2.17;0.80;;;16.50;99.90;;;;;;5059622;28;20214;-71
2022/10/06 01:13:22;;;;;;;1.85;0.75;;;16.50;99.90;;;;;;5070726;28;20170;-73
2022/10/06 01:16:11;;;;;;;3.22;0.80;;;16.50;99.90;;;;;;5053601;28;20194;-71
2022/10/06 01:18:40;;;;;;;3.60;0.82;;;16.60;99.90;;;;;;5053466;28;20190;-72
2022/10/06 01:21:19;;;;;;;1.52;0.57;;;16.60;99.90;;;;;;5036632;28;20169;-71
2022/10/06 01:23:45;;;;;;;1.63;0.80;;;16.60;99.90;;;;;;5036676;28;20197;-72
2022/10/06 01:26:13;;;;;;;2.47;0.88;;;16.60;99.90;;;;;;5046589;28;20243;-71
2022/10/06 01:28:39;;;;;;;4.28;0.73;;;16.70;99.90;;;;;;5055947;28;20292;-71
2022/10/06 01:31:10;;;;;;;0.90;0.50;;;16.70;99.90;;;;;;5039692;28;20272;-71
2022/10/06 01:33:35;;;;;;;2.60;0.75;;;16.70;99.90;;;;;;5037772;28;20198;-71
2022/10/06 01:36:01;;;;;;;2.35;0.80;;;16.70;99.90;;;;;;5037100;28;20210;-71
2022/10/06 01:38:27;;;;;;;2.50;0.88;;;16.80;99.90;;;;;;5052677;28;20197;-71
2022/10/06 01:40:55;;;;;;;2.08;0.70;;;16.80;99.90;;;;;;5056118;28;20263;-72
2022/10/06 01:43:21;;;;;;;2.88;0.85;;;16.80;99.90;;;;;;5052107;28;20220;-70
2022/10/06 01:45:57;;;;;;;1.27;0.60;;;16.80;99.90;;;;;;5052577;28;20190;-70
2022/10/06 01:48:23;;;;;;;2.08;0.93;;;16.80;99.90;;;;;;5035988;28;20200;-71
2022/10/06 01:50:51;;;;;;;1.52;0.60;;;16.80;99.90;;;;;;5050370;28;20212;-72
2022/10/06 01:53:17;;;;;;;2.67;0.75;;;16.80;99.90;;;;;;5055391;28;20314;-71
2022/10/06 01:55:43;;;;;;;2.53;0.80;;;16.80;99.90;;;;;;5057010;28;20240;-71
2022/10/06 01:58:10;;;;;;;2.88;0.70;;;16.80;99.90;;;;;;5046983;28;20169;-73
2022/10/06 02:00:35;;;;;;;2.45;1.00;;;16.80;99.90;;;;;;5056070;28;20231;-72
2022/10/06 02:03:04;;;;;;;7.65;1.35;;;16.80;99.90;;;;;;5055643;28;20169;-72
2022/10/06 02:05:30;;;;;;;5.38;1.10;;;16.80;99.90;;;;;;5039129;28;20240;-72
2022/10/06 02:07:55;;;;;;;2.63;0.82;;;16.80;99.90;;;;;;5041378;28;20205;-73
2022/10/06 02:10:21;;;;;;;3.25;1.20;;;16.80;99.90;;;;;;5055261;28;20173;-69
2022/10/06 02:12:53;;;;;;;3.88;0.95;;;16.80;99.90;;;;;;5035600;28;20387;-71
2022/10/06 02:15:22;;;;;;;4.25;0.93;;;16.70;99.90;;;;;;5048299;28;20211;-70
2022/10/06 02:17:47;;;;;;;2.75;0.80;;;16.70;99.90;;;;;;5054931;28;20337;-72
2022/10/06 02:20:16;;;;;;;1.75;0.63;;;16.60;99.90;;;;;;5055543;28;20196;-71
2022/10/06 02:22:42;;;;;;;3.38;1.05;;;16.60;99.90;;;;;;5073005;28;20226;-72
2022/10/06 02:25:10;;;;;;;2.97;1.15;;;16.60;99.90;;;;;;5070409;28;20212;-71
2022/10/06 02:27:37;;;;;;;2.75;0.93;;;16.50;99.90;;;;;;5057789;28;20177;-71
2022/10/06 02:30:04;;;;;;;2.38;0.80;;;16.50;99.90;;;;;;5056575;28;20181;-72
2022/10/06 02:32:38;;;;;;;2.40;1.00;;;16.40;99.90;;;;;;5046055;28;20196;-70
2022/10/06 02:35:05;;;;;;;2.88;0.93;;;16.40;99.90;;;;;;5037958;28;20194;-71
2022/10/06 02:37:34;;;;;;;3.30;0.88;;;16.40;99.90;;;;;;5075005;28;20283;-71
2022/10/06 02:40:05;;;;;;;2.92;0.90;;;16.30;99.90;;;;;;5059358;28;20261;-71
2022/10/06 02:42:30;;;;;;;5.15;1.40;;;16.20;99.90;;;;;;5048896;28;20205;-71
2022/10/06 02:45:00;;;;;;;3.35;1.17;;;16.20;99.90;;;;;;5034791;28;20170;-70
2022/10/06 02:47:26;;;;;;;3.08;1.15;;;16.20;99.90;;;;;;5036250;28;20241;-72
2022/10/06 02:49:52;;;;;;;3.55;1.00;;;16.10;99.90;;;;;;5046484;28;20443;-71
2022/10/06 02:52:19;;;;;;;2.83;0.90;;;16.10;99.90;;;;;;5056155;28;20183;-72
2022/10/06 02:54:45;;;;;;;2.92;0.85;;;16.00;99.90;;;;;;5051570;28;20209;-71
2022/10/06 02:57:14;;;;;;;4.85;1.10;;;16.00;99.90;;;;;;5036766;28;20264;-72
2022/10/06 02:59:39;;;;;;;4.43;1.10;;;16.00;99.90;;;;;;5047607;28;20275;-72
2022/10/06 03:02:05;;;;;;;4.93;1.30;;;15.90;99.90;;;;;;5074244;28;20231;-69
2022/10/06 03:04:33;;;;;;;5.20;1.42;;;15.80;99.90;;;;;;5034446;28;20581;-71
2022/10/06 03:06:58;;;;;;;5.97;1.20;;;15.80;99.90;;;;;;5038474;28;20174;-69
2022/10/06 03:09:24;;;;;;;5.22;1.13;;;15.80;99.90;;;;;;5034744;28;20189;-69
2022/10/06 03:11:54;;;;;;;5.03;1.17;;;15.80;99.90;;;;;;5036277;28;20243;-71
2022/10/06 03:14:20;;;;;;;3.10;1.00;;;15.70;99.90;;;;;;5034329;28;20218;-72
2022/10/06 03:16:45;;;;;;;4.75;1.10;;;15.70;99.90;;;;;;5034214;28;20226;-71
2022/10/06 03:19:13;;;;;;;3.83;1.38;;;15.60;99.90;;;;;;5052320;28;20196;-71
2022/10/06 03:21:43;;;;;;;4.95;1.48;;;15.60;99.90;;;;;;5046206;28;20198;-72
2022/10/06 03:24:09;;;;;;;6.63;1.92;;;15.60;99.90;;;;;;5034026;28;20193;-71
2022/10/06 03:26:38;;;;;;;7.13;1.48;;;15.50;99.90;;;;;;5051884;28;20173;-71
2022/10/06 03:29:12;;;;;;;5.28;1.35;;;15.50;99.90;;;;;;5054225;28;20180;-69
2022/10/06 03:31:39;;;;;;;5.63;1.10;;;15.50;99.90;;;;;;5055216;28;20185;-67
2022/10/06 03:34:07;;;;;;;8.30;1.60;;;15.40;99.90;;;;;;5047980;28;20240;-72
2022/10/06 03:36:34;;;;;;;4.28;1.30;;;15.40;99.90;;;;;;5050864;28;20194;-71
2022/10/06 03:39:03;;;;;;;4.43;1.20;;;15.40;99.90;;;;;;5051405;28;20217;-70
2022/10/06 03:41:31;;;;;;;4.95;1.30;;;15.40;99.90;;;;;;5061182;28;20181;-71
2022/10/06 03:43:58;;;;;;;4.90;1.15;;;15.40;99.90;;;;;;5054025;28;20208;-72
2022/10/06 03:46:28;;;;;;;4.68;1.10;;;15.30;99.90;;;;;;5052193;28;20186;-70
2022/10/06 03:48:54;;;;;;;6.72;1.40;;;15.30;99.90;;;;;;5034260;28;20174;-71
2022/10/06 03:51:31;;;;;;;5.53;1.15;;;15.30;99.90;;;;;;5034026;28;20193;-71
2022/10/06 03:53:58;;;;;;;3.78;1.33;;;15.20;99.90;;;;;;5046917;28;20207;-72
2022/10/06 03:56:24;;;;;;;4.05;0.90;;;15.20;99.90;;;;;;5053816;28;20205;-73
2022/10/06 03:59:06;;;;;;;4.00;1.40;;;15.10;99.90;;;;;;5054026;28;20283;-71
2022/10/06 04:01:37;;;;;;;8.13;1.70;;;15.10;99.90;;;;;;5044826;28;20293;-72
2022/10/06 04:04:04;;;;;;;5.07;1.30;;;15.10;99.90;;;;;;5052655;28;20170;-71
2022/10/06 04:06:32;;;;;;;5.05;1.40;;;15.00;99.90;;;;;;5053571;28;20178;-69
2022/10/06 04:08:58;;;;;;;3.90;1.00;;;15.00;99.90;;;;;;5034091;28;20188;-71
2022/10/06 04:11:30;;;;;;;5.05;0.90;;;14.90;99.90;;;;;;5048746;28;20192;-71
2022/10/06 04:13:59;;;;;;;5.30;1.20;;;14.90;99.90;;;;;;5053760;28;20173;-71
2022/10/06 04:16:33;;;;;;;3.97;0.90;;;14.80;99.90;;;;;;5052277;28;20197;-71
2022/10/06 04:19:08;;;;;;;3.13;0.95;;;14.80;99.90;;;;;;5053973;28;20258;-71
2022/10/06 04:21:41;;;;;;;4.65;0.98;;;14.80;99.90;;;;;;5037083;28;20177;-71
2022/10/06 04:24:10;;;;;;;4.07;1.10;;;14.70;99.90;;;;;;5043432;28;20205;-71
2022/10/06 04:26:43;;;;;;;7.40;1.35;;;14.70;99.90;;;;;;5052471;28;20178;-71
2022/10/06 04:29:09;;;;;;;3.10;1.10;;;14.70;99.90;;;;;;5053761;28;20204;-71
2022/10/06 04:31:39;;;;;;;3.88;1.17;;;14.70;99.90;;;;;;5056731;28;20174;-70
2022/10/06 04:34:06;;;;;;;2.63;0.88;;;14.60;99.90;;;;;;5053688;28;20280;-71
2022/10/06 04:36:34;;;;;;;3.83;1.08;;;14.60;99.90;;;;;;5048527;28;20255;-71
2022/10/06 04:39:04;;;;;;;5.88;1.30;;;14.60;99.90;;;;;;5037688;28;20177;-72
2022/10/06 04:41:40;;;;;;;3.88;1.08;;;14.60;99.90;;;;;;5071892;28;20197;-71
2022/10/06 04:44:07;;;;;;;2.88;1.02;;;14.50;99.90;;;;;;5066719;28;20165;-72
2022/10/06 04:46:34;;;;;;;3.75;1.05;;;14.50;99.90;;;;;;5044954;28;20202;-71
2022/10/06 04:48:59;;;;;;;3.30;1.20;;;14.50;99.90;;;;;;5057579;28;20196;-71
2022/10/06 04:51:29;;;;;;;5.95;1.55;;;14.50;99.90;;;;;;5056791;28;20181;-71
2022/10/06 04:53:54;;;;;;;2.70;1.00;;;14.40;99.90;;;;;;5055217;28;20181;-71
2022/10/06 04:56:26;;;;;;;3.97;1.10;;;14.40;99.90;;;;;;5037255;28;20190;-71
2022/10/06 04:58:55;;;;;;;4.07;1.25;;;14.30;99.90;;;;;;5037610;28;20452;-71
2022/10/06 05:01:22;;;;;;;6.38;1.23;;;14.30;99.90;;;;;;5039329;28;20181;-71
2022/10/06 05:03:49;;;;;;;3.28;1.42;;;14.20;99.90;;;;;;5057019;28;20197;-71
2022/10/06 05:06:26;;;;;;;5.25;1.42;;;14.20;99.90;;;;;;5047231;28;20186;-71
2022/10/06 05:09:03;;;;;;;4.63;1.30;;;14.20;99.90;;;;;;5036481;28;20205;-71
2022/10/06 05:11:30;;;;;;;5.57;1.45;;;14.10;99.90;;;;;;5053130;28;20181;-72
2022/10/06 05:13:59;;;;;;;5.30;1.73;;;14.10;99.90;;;;;;5037515;28;20178;-71
2022/10/06 05:16:26;;;;;;;5.80;1.55;;;14.00;99.90;;;;;;5045513;28;20209;-70
2022/10/06 05:18:55;;;;;;;7.60;2.20;;;14.00;99.90;;;;;;5056228;28;20165;-71
2022/10/06 05:21:29;;;;;;;5.90;1.23;;;14.00;99.90;;;;;;5073305;28;20194;-71
2022/10/06 05:23:57;;;;;;;4.05;1.27;;;13.90;99.90;;;;;;5055151;28;20181;-69
2022/10/06 05:26:29;;;;;;;4.80;1.20;;;13.90;99.90;;;;;;5056541;28;20193;-71
2022/10/06 05:28:54;;;;;;;3.10;1.35;;;13.90;99.90;;;;;;5070412;28;20180;-71
2022/10/06 05:31:25;;;;;;;4.93;1.38;;;13.80;99.90;;;;;;5066263;28;20174;-72
2022/10/06 05:33:54;;;;;;;6.03;1.30;;;13.80;99.90;;;;;;5053678;28;20188;-72
2022/10/06 05:36:24;;;;;;;4.57;1.27;;;13.80;99.90;;;;;;5066326;28;20253;-72
2022/10/06 05:38:50;;;;;;;7.35;1.42;;;13.80;99.90;;;;;;5062557;28;20209;-72
2022/10/06 05:41:21;;;;;;;4.45;1.02;;;13.80;99.90;;;;;;5054295;28;20212;-72
2022/10/06 05:43:47;;;;;;;3.78;1.30;;;13.80;99.90;;;;;;5073145;28;20291;-72
2022/10/06 05:46:23;;;;;;;4.47;1.73;;;13.70;99.90;;;;;;5069854;28;20181;-71
2022/10/06 05:48:54;;;;;;;8.23;1.92;;;13.70;99.90;;;;;;5056610;28;20239;-71
2022/10/06 05:51:26;;;;;;;6.78;1.60;;;13.70;99.90;;;;;;5057671;28;20252;-72
2022/10/06 05:53:54;;;;;;;5.65;1.20;;;13.60;99.90;;;;;;5047742;28;20189;-72
2022/10/06 05:56:25;;;;;;;3.88;1.13;;;13.60;99.90;;;;;;5035603;28;20190;-72
2022/10/06 05:58:52;;;;;;;3.97;1.42;;;13.60;99.90;;;;;;5054098;28;20176;-72
2022/10/06 06:01:21;;;;;;;4.45;1.70;;;13.60;99.90;;;;;;5055177;28;20198;-72
2022/10/06 06:03:50;;;;;;;4.18;1.40;;;13.60;99.90;;;;;;5055797;28;20176;-71
2022/10/06 06:06:24;;;;;;;6.82;1.58;;;13.60;99.90;;;;;;5055231;28;20232;-72
2022/10/06 06:08:55;;;;;;;4.25;1.52;;;13.60;99.90;;;;;;5063724;28;20184;-72
2022/10/06 06:11:26;;;;;;;4.22;1.42;;;13.50;99.90;;;;;;5043142;28;20200;-71
2022/10/06 06:14:07;;;;;;;5.88;1.35;;;13.50;99.90;;;;;;5038946;28;20385;-73
2022/10/06 06:16:37;;;;;;;4.40;1.30;;;13.50;99.90;;;;;;5056323;28;20189;-72
2022/10/06 06:19:04;;;;;;;9.82;1.60;;;13.50;99.90;;;;;;5045725;28;20241;-73
2022/10/06 06:21:30;;;;;;;5.72;1.33;;;13.50;99.90;;;;;;5037493;28;20174;-72
2022/10/06 06:23:56;;;;;;;6.07;1.77;;;13.50;99.90;;;;;;5056245;28;20190;-84
2022/10/06 06:26:27;;;;;;;7.07;1.50;;;13.50;99.90;;;;;;5042791;28;20208;-81
2022/10/06 06:29:04;;;;;;;6.13;1.50;;;13.50;99.90;;;;;;5035458;28;20202;-83
2022/10/06 06:31:33;;;;;;;5.57;1.63;;;13.50;99.90;;;;;;5035612;28;20181;-85
2022/10/06 06:34:01;;;;;;;4.63;1.13;;;13.50;99.90;;;;;;5040598;28;20260;-86
2022/10/06 06:36:35;;;;;;;4.28;0.90;;;13.60;99.90;;;;;;5055673;28;20181;-82
2022/10/06 06:39:05;;;;;;;6.28;1.63;;;13.60;99.90;;;;;;5058337;28;20177;-81
2022/10/06 06:41:38;;;;;;;4.22;1.20;;;13.60;99.90;;;;;;5061185;28;20165;-80
2022/10/06 06:44:07;;;;;;;5.05;1.52;;;13.60;99.90;;;;;;5066560;28;20239;-81
2022/10/06 06:46:33;;;;;;;5.03;1.70;;;13.60;99.90;;;;;;5073086;28;20231;-83
2022/10/06 06:49:03;;;;;;;6.13;1.60;;;13.60;99.90;;;;;;5056129;28;20189;-85
2022/10/06 06:51:39;;;;;;;7.47;1.52;;;13.70;99.90;;;;;;5056362;28;20229;-85
2022/10/06 06:54:06;;;;;;;5.10;1.30;;;13.70;99.90;;;;;;5063768;28;20162;-69
2022/10/06 06:56:35;;;;;;;5.00;1.35;;;13.70;99.90;;;;;;5076740;28;20224;-71
2022/10/06 06:59:13;;;;;;;7.05;1.65;;;13.70;99.90;;;;;;5068354;28;20203;-84
2022/10/06 07:01:43;;;;;;;6.13;1.63;;;13.70;99.90;;;;;;5046347;28;20177;-81
2022/10/06 07:04:13;;;;;;;4.78;1.40;;;13.70;99.90;;;;;;5036114;28;20199;-84
2022/10/06 07:06:42;;;;;;;6.43;1.77;;;13.70;99.90;;;;;;5052055;28;20178;-83
2022/10/06 07:09:09;;;;;;;5.43;1.70;;;13.70;99.90;;;;;;5054591;28;20201;-86
2022/10/06 07:11:40;;;;;;;5.38;1.60;;;13.70;99.90;;;;;;5055518;28;20304;-85
2022/10/06 07:14:11;;;;;;;3.85;1.58;;;13.70;99.90;;;;;;5055010;28;20529;-82
2022/10/06 07:25:05;;;;;;;3.97;1.35;;;13.80;99.90;;;;;;5050949;28;20200;-83
2022/10/06 07:27:32;;;;;;;4.97;1.70;;;13.80;99.90;;;;;;5051207;28;20273;-82
2022/10/06 07:29:58;;;;;;;5.35;1.50;;;13.80;99.90;;;;;;5051775;28;20261;-82
2022/10/06 07:32:29;;;;;;;7.55;1.90;;;13.80;99.90;;;;;;5051125;28;20201;-82
2022/10/06 07:34:57;;;;;;;6.05;1.77;;;13.70;99.90;;;;;;5054467;28;20177;-81
2022/10/06 07:37:23;;;;;;;5.82;1.45;;;13.90;99.90;;;;;;5054610;28;20209;-82
2022/10/06 07:39:49;;;;;;;7.55;1.67;;;13.90;99.90;;;;;;5054488;28;20180;-78
2022/10/06 07:42:18;;;;;;;5.93;1.60;;;13.90;99.90;;;;;;5054177;28;20284;-82
2022/10/06 07:45:36;;;;;;;11.38;1.83;;;14.00;99.90;;;;;;5054460;28;20165;-86
2022/10/06 07:47:36;;;;;;;6.60;1.63;;;14.00;99.90;;;;;;5054316;28;20181;-81
2022/10/06 07:50:05;;;;;;;7.65;1.67;;;14.00;99.90;;;;;;5056555;28;20169;-83
2022/10/06 07:52:31;;;;;;;9.57;1.50;;;14.00;99.90;;;;;;5058787;28;20180;-83
2022/10/06 07:54:59;;;;;;;5.80;1.40;;;14.10;99.90;;;;;;5066571;28;20162;-69
2022/10/06 07:57:33;;;;;;;5.05;1.90;;;14.10;99.90;;;;;;5074913;28;20197;-81
2022/10/06 07:59:59;;;;;;;8.70;1.80;;;14.20;99.90;;;;;;5055701;28;20288;-82
2022/10/06 08:02:27;;;;;;;8.57;2.17;;;14.20;99.90;;;;;;5054298;28;20223;-82
2022/10/06 08:04:53;;;;;;;6.15;1.70;;;14.30;99.90;;;;;;5037294;28;20186;-83
2022/10/06 08:07:21;;;;;;;8.65;2.10;;;14.40;99.90;;;;;;5040842;28;20234;-82
2022/10/06 08:09:49;;;;;;;5.78;1.50;;;14.40;99.90;;;;;;5037891;28;20174;-81
2022/10/06 08:12:32;;;;;;;9.55;1.80;;;14.40;99.90;;;;;;5044333;28;20207;-84
2022/10/06 08:15:01;;;;;;;6.45;1.63;;;14.50;99.90;;;;;;5077690;28;20189;-80
2022/10/06 08:17:30;;;;;;;6.63;1.50;;;14.50;99.90;;;;;;5077876;28;20277;-82
2022/10/06 08:19:58;;;;;;;7.57;1.85;;;14.60;99.90;;;;;;5077702;28;20173;-83
2022/10/06 08:22:28;;;;;;;6.80;1.63;;;14.60;99.90;;;;;;5074111;28;20196;-83
2022/10/06 08:24:57;;;;;;;6.05;2.15;;;14.70;99.90;;;;;;5038965;28;20214;-81
2022/10/06 08:27:26;;;;;;;8.60;1.95;;;14.80;99.90;;;;;;5050585;28;20169;-81
2022/10/06 08:29:53;;;;;;;8.60;2.03;;;14.80;99.90;;;;;;5057734;28;20264;-81
2022/10/06 08:32:20;;;;;;;9.27;1.70;;;14.90;99.90;;;;;;5058600;28;20180;-81
2022/10/06 08:34:49;;;;;;;4.95;1.50;;;14.90;99.90;;;;;;5075886;28;20211;-81
2022/10/06 08:37:15;;;;;;;9.73;1.85;;;15.00;99.90;;;;;;5078075;28;20197;-81
2022/10/06 08:39:44;;;;;;;8.43;1.98;;;15.10;99.90;;;;;;5077425;28;20193;-82
2022/10/06 08:42:19;;;;;;;8.18;2.00;;;15.10;99.90;;;;;;5077505;28;20357;-80
2022/10/06 08:44:53;;;;;;;7.18;2.00;;;15.20;99.90;;;;;;5077671;28;20160;-82
2022/10/06 08:47:21;;;;;;;5.35;1.80;;;15.30;99.90;;;;;;5054442;28;20193;-82
2022/10/06 08:49:53;;;;;;;7.00;1.80;;;15.40;99.90;;;;;;5054330;28;20173;-82
2022/10/06 08:52:22;;;;;;;4.95;1.50;;;15.40;99.90;;;;;;5054559;28;20177;-81
2022/10/06 08:55:05;;;;;;;6.22;1.60;;;15.50;99.90;;;;;;5050724;28;20188;-80
2022/10/06 08:58:18;;;;;;;5.90;1.83;;;15.60;99.90;;;;;;5070208;28;20209;-74
2022/10/06 09:00:43;;;;;;;7.10;2.03;;;15.70;99.90;;;;;;5076486;28;20174;-82
2022/10/06 09:03:22;;;;;;;6.72;1.52;;;15.80;99.90;;;;;;5068487;28;20201;-80
2022/10/06 09:05:52;;;;;;;9.50;2.17;;;15.90;99.90;;;;;;5073913;28;20157;-79
2022/10/06 09:08:35;;;;;;;6.22;1.75;;;15.90;99.90;;;;;;5060622;28;20197;-84
2022/10/06 09:11:05;;;;;;;5.40;1.80;;;16.00;99.90;;;;;;5065099;28;20176;-83
2022/10/06 09:13:37;;;;;;;4.93;1.77;;;16.00;99.90;;;;;;5056713;28;20209;-84
2022/10/06 09:16:09;;;;;;;8.63;1.80;;;16.10;99.90;;;;;;5056449;28;20264;-82
2022/10/06 09:18:43;;;;;;;7.00;1.80;;;16.30;99.90;;;;;;5056747;28;20234;-83
2022/10/06 09:21:15;;;;;;;6.47;1.20;;;16.70;99.90;;;;;;5061716;28;20200;-82
2022/10/06 09:23:47;;;;;;;5.03;1.25;;;17.20;99.90;;;;;;5077007;28;20176;-82
2022/10/06 09:26:21;;;;;;;4.50;1.50;;;17.80;99.90;;;;;;5077286;28;20199;-80
2022/10/06 09:28:50;;;;;;;7.38;2.10;;;18.40;99.90;;;;;;5077181;28;20164;-82
2022/10/06 09:31:22;;;;;;;4.68;1.60;;;18.90;99.90;;;;;;5071164;28;20201;-80
2022/10/06 09:34:11;;;;;;;5.38;1.77;;;19.40;99.90;;;;;;5053053;28;20177;-81
2022/10/06 09:37:01;;;;;;;6.90;2.08;;;19.80;99.90;;;;;;5069315;28;20247;-81
2022/10/06 09:39:36;;;;;;;8.77;2.03;;;20.30;99.90;;;;;;5056417;28;20169;-83
2022/10/06 09:42:16;;;;;;;2.92;1.50;;;20.60;99.90;;;;;;5056289;28;20292;-82
2022/10/06 09:44:52;;;;;;;6.10;1.95;;;20.80;99.90;;;;;;5054207;28;20212;-82
2022/10/06 09:47:30;;;;;;;5.85;1.50;;;21.10;99.90;;;;;;5057234;28;20176;-80
2022/10/06 09:50:11;;;;;;;5.55;1.40;;;21.40;99.90;;;;;;5055897;28;20173;-83
2022/10/06 09:52:59;;;;;;;6.05;1.40;;;21.70;99.90;;;;;;5040773;28;20182;-82
2022/10/06 09:55:32;;;;;;;5.15;1.30;;;22.10;99.90;;;;;;5035960;28;20178;-84
2022/10/06 09:58:15;;;;;;;5.28;1.25;;;22.30;99.90;;;;;;5054258;28;20204;-84
2022/10/06 10:00:57;;;;;;;5.68;1.60;;;22.50;99.90;;;;;;5055973;28;20245;-81
2022/10/06 10:03:30;;;;;;;4.43;1.38;;;22.60;99.90;;;;;;5056077;28;20288;-81
2022/10/06 10:06:01;;;;;;;5.20;1.40;;;22.50;99.90;;;;;;5056143;28;20199;-82
2022/10/06 10:08:30;;;;;;;4.45;1.45;;;22.40;99.90;;;;;;5057583;28;20260;-83
2022/10/06 10:13:52;;;;;;;3.75;1.20;;;22.20;99.90;;;;;;5071157;28;20196;-83
2022/10/06 10:16:23;;;;;;;4.32;1.30;;;22.30;99.90;;;;;;5059418;28;20220;-80
2022/10/06 10:18:52;;;;;;;3.33;1.08;;;22.40;99.90;;;;;;5055268;28;20187;-80
2022/10/06 10:21:28;;;;;;;4.07;1.20;;;22.50;99.90;;;;;;5056105;28;20170;-83
2022/10/06 10:23:56;;;;;;;3.15;1.00;;;22.60;99.90;;;;;;5055913;28;20193;-82
2022/10/06 10:26:46;;;;;;;4.07;1.33;;;22.70;99.90;;;;;;5055589;28;20181;-82
2022/10/06 10:29:21;;;;;;;2.35;1.05;;;22.70;98.10;;;;;;5052876;28;20193;-78
2022/10/06 10:31:58;;;;;;;4.15;1.20;;;22.70;99.90;;;;;;5056020;28;20164;-80
2022/10/06 10:35:00;;;;;;;5.35;1.08;;;22.70;99.90;;;;;;5055606;28;20284;-81
2022/10/06 10:37:53;;;;;;;4.28;0.95;;;22.60;99.90;;;;;;5055379;28;20219;-79
2022/10/06 10:40:28;;;;;;;2.15;1.00;;;22.30;99.90;;;;;;5055317;28;20197;-80
2022/10/06 10:43:09;;;;;;;2.88;0.90;;;22.20;99.90;;;;;;5054111;28;20196;-79
2022/10/06 10:45:49;;;;;;;4.10;1.10;;;22.00;99.90;;;;;;5055280;28;20197;-82
2022/10/06 10:48:31;;;;;;;3.75;1.15;;;21.90;99.90;;;;;;5055111;28;20185;-84
2022/10/06 10:51:10;;;;;;;4.38;1.13;;;21.80;99.90;;;;;;5055206;28;20299;-83
2022/10/06 10:53:46;;;;;;;2.80;0.90;;;21.80;99.90;;;;;;5053092;28;20239;-82
2022/10/06 10:56:13;;;;;;;3.50;0.82;;;21.80;99.90;;;;;;5051678;28;20233;-83
2022/10/06 10:58:41;;;;;;;4.93;1.88;;;21.90;99.90;;;;;;5052213;28;20174;-80
2022/10/06 11:01:35;;;;;;;3.75;1.40;;;22.00;99.90;;;;;;5067884;28;20182;-67
2022/10/06 11:04:09;;;;;;;3.95;1.38;;;22.00;99.90;;;;;;5074090;28;20154;-74
2022/10/06 11:06:53;;;;;;;3.85;1.23;;;22.00;99.90;;;;;;5056851;28;20260;-78
2022/10/06 11:09:32;;;;;;;3.47;1.10;;;22.10;99.90;;;;;;5055445;28;20172;-82
2022/10/06 11:12:18;;;;;;;2.78;0.70;;;22.10;99.90;;;;;;5055845;28;20246;-81
2022/10/06 11:14:49;;;;;;;2.80;1.10;;;22.10;99.90;;;;;;5056397;28;20204;-81
2022/10/06 11:17:45;;;;;;;2.38;0.80;;;22.30;99.90;;;;;;5059413;28;20207;-81
2022/10/06 11:20:20;;;;;;;4.65;1.13;;;22.50;99.90;;;;;;5062439;28;20296;-83
2022/10/06 11:22:52;;;;;;;3.17;1.58;;;22.50;99.90;;;;;;5070734;28;20173;-75
2022/10/06 11:25:46;;;;;;;2.90;1.35;;;22.50;99.90;;;;;;5077030;28;20204;-81
2022/10/06 11:28:26;;;;;;;4.97;1.10;;;22.50;99.90;;;;;;5063768;28;20173;-81
2022/10/06 11:31:36;;;;;;;2.55;0.95;;;22.60;99.90;;;;;;5044376;28;20204;-80
2022/10/06 11:34:03;;;;;;;2.38;0.90;;;22.80;99.70;;;;;;5068648;28;20174;-81
2022/10/06 11:36:46;;;;;;;4.53;1.20;;;22.90;99.90;;;;;;5049663;28;20205;-82
2022/10/06 11:39:29;;;;;;;3.08;1.02;;;22.90;99.90;;;;;;5045674;28;20174;-81
2022/10/06 11:42:18;;;;;;;2.95;0.93;;;22.80;99.60;;;;;;5034764;28;20261;-81
2022/10/06 11:44:51;;;;;;;2.17;0.95;;;22.70;98.10;;;;;;5035467;28;20265;-82
2022/10/06 11:47:25;;;;;;;1.75;0.75;;;22.60;97.80;;;;;;5051014;28;20220;-78
2022/10/06 11:49:54;;;;;;;1.67;0.68;;;22.70;99.40;;;;;;5046610;28;20177;-83
2022/10/06 11:52:20;;;;;;;3.95;1.10;;;22.70;99.90;;;;;;5034229;28;20192;-79
2022/10/06 11:54:55;;;;;;;1.95;0.80;;;22.70;99.70;;;;;;5034501;28;20253;-81
2022/10/06 11:57:21;;;;;;;3.28;0.90;;;22.70;99.80;;;;;;5035615;28;20222;-82
2022/10/06 11:59:48;;;;;;;2.13;0.80;;;22.70;99.90;;;;;;5055818;28;20170;-82
2022/10/06 12:02:29;;;;;;;2.40;0.90;;;22.80;99.90;;;;;;5054960;28;20196;-77
2022/10/06 12:05:13;;;;;;;2.38;0.70;;;22.80;99.40;;;;;;5057333;28;20213;-83
2022/10/06 12:07:59;;;;;;;1.88;0.82;;;22.90;95.70;;;;;;5053503;28;20173;-84
2022/10/06 12:10:27;;;;;;;3.40;0.98;;;22.90;88.00;;;;;;5033657;28;20189;-83
2022/10/06 12:13:18;;;;;;;3.25;1.00;;;23.00;96.40;;;;;;5034464;28;20505;-83
2022/10/06 12:15:46;;;;;;;2.47;1.00;;;23.00;95.70;;;;;;5039112;28;20182;-82
2022/10/06 12:18:50;;;;;;;3.10;0.80;;;23.10;97.30;;;;;;5051141;28;20202;-83
2022/10/06 12:21:49;;;;;;;2.83;0.90;;;23.10;95.10;;;;;;5034580;28;20170;-84
2022/10/06 12:24:53;;;;;;;1.20;0.70;;;23.20;95.90;;;;;;5050948;28;20184;-85
2022/10/06 12:27:29;;;;;;;3.40;0.55;;;23.20;94.40;;;;;;5042664;28;20181;-84
2022/10/06 12:30:10;;;;;;;2.10;0.90;;;23.30;96.70;;;;;;5053722;28;20229;-81
2022/10/06 12:32:47;;;;;;;2.15;0.60;;;23.30;95.40;;;;;;5040358;28;20181;-84
2022/10/06 12:35:23;;;;;;;2.38;0.60;;;23.40;95.20;;;;;;5052128;28;20225;-79
2022/10/06 12:37:53;;;;;;;2.03;0.73;;;23.40;95.50;;;;;;5043326;28;20192;-81
2022/10/06 12:40:39;;;;;;;3.53;0.90;;;23.50;95.80;;;;;;5054026;28;20197;-82
2022/10/06 12:43:13;;;;;;;3.33;0.80;;;23.50;93.30;;;;;;5036278;28;20189;-84
2022/10/06 12:46:04;;;;;;;1.25;0.60;;;23.60;94.30;;;;;;5043878;28;20201;-82
2022/10/06 12:48:39;;;;;;;1.90;0.70;;;23.70;95.60;;;;;;5071423;28;20186;-81
2022/10/06 12:51:05;;;;;;;2.90;0.90;;;23.80;94.70;;;;;;5067405;28;20203;-68
2022/10/06 12:53:47;;;;;;;5.88;0.88;;;23.90;94.90;;;;;;5073224;28;20237;-72
2022/10/06 12:56:36;;;;;;;2.05;0.68;;;23.90;94.40;;;;;;5052863;28;20208;-84
2022/10/06 12:59:23;;;;;;;2.03;0.60;;;23.90;94.10;;;;;;5054283;28;20216;-83
2022/10/06 13:01:52;;;;;;;1.88;0.75;;;23.80;92.80;;;;;;5036863;28;20208;-84
2022/10/06 13:04:40;;;;;;;1.27;0.40;;;23.70;93.80;;;;;;5047491;28;20169;-82
2022/10/06 13:07:16;;;;;;;1.55;0.68;;;23.70;93.20;;;;;;5072677;28;20204;-84
2022/10/06 13:09:45;;;;;;;2.58;1.00;;;23.70;91.40;;;;;;5054004;28;20170;-84
2022/10/06 13:12:23;;;;;;;3.78;1.08;;;23.70;92.70;;;;;;5037478;28;20556;-77
2022/10/06 13:15:10;;;;;;;1.95;0.90;;;23.70;87.90;;;;;;5054092;28;20205;-82
2022/10/06 13:17:54;;;;;;;1.90;0.82;;;23.80;90.30;;;;;;5038753;28;20374;-85
2022/10/06 13:20:41;;;;;;;2.15;0.80;;;23.90;92.00;;;;;;5050583;28;20188;-82
2022/10/06 13:23:25;;;;;;;1.75;0.55;;;23.90;92.00;;;;;;5056825;28;20188;-85
2022/10/06 13:25:54;;;;;;;3.17;0.82;;;23.90;90.50;;;;;;5056664;28;20188;-82